Time;durP1;ratioP1;P1;durP2;ratioP2;P2;SDS_P1;SDS_P2;PMS_P1;PMS_P2;Temp;Humidity;BMP_temperature;BMP_pressure;BME280_temperature;BME280_humidity;BME280_pressure;Samples;Min_cycle;Max_cycle;Signal;HPM_P1;HPM_P2
2021/12/12 00:02:20;;;;;;;34.58;19.80;;;;;;;6.74;100.00;101558.11;1727440;81;21551;-61
2021/12/12 00:04:46;;;;;;;46.33;23.10;;;;;;;6.50;100.00;101556.59;1729549;81;22059;-61
2021/12/12 00:07:13;;;;;;;45.45;23.18;;;;;;;6.28;100.00;101559.26;1728409;81;20955;-61
2021/12/12 00:09:45;;;;;;;34.85;19.40;;;;;;;6.17;100.00;101557.52;1724180;81;21143;-65
2021/12/12 00:12:26;;;;;;;39.45;21.15;;;;;;;6.21;100.00;101551.19;1724858;81;21634;-62
2021/12/12 00:14:53;;;;;;;42.48;21.97;;;;;;;6.11;100.00;101553.33;1725799;81;21488;-63
2021/12/12 00:17:23;;;;;;;45.58;24.70;;;;;;;5.99;100.00;101552.53;1724283;82;20943;-68
2021/12/12 00:19:50;;;;;;;38.73;21.60;;;;;;;6.19;100.00;101549.65;1724724;81;21133;-61
2021/12/12 00:22:21;;;;;;;36.68;21.00;;;;;;;6.25;100.00;101552.58;1725597;81;21019;-69
2021/12/12 00:24:49;;;;;;;39.42;22.17;;;;;;;5.98;100.00;101544.40;1722756;82;21184;-62
2021/12/12 00:27:16;;;;;;;41.63;23.47;;;;;;;5.96;100.00;101544.53;1728249;81;21030;-70
2021/12/12 00:29:44;;;;;;;38.85;23.70;;;;;;;6.05;100.00;101545.08;1725926;81;21098;-61
2021/12/12 00:32:15;;;;;;;38.23;21.87;;;;;;;6.17;100.00;101553.64;1725868;81;21504;-68
2021/12/12 00:34:49;;;;;;;39.08;20.45;;;;;;;6.14;100.00;101551.31;1729154;81;21129;-61
2021/12/12 00:37:17;;;;;;;39.13;21.80;;;;;;;6.53;100.00;101551.64;1728486;81;21699;-69
2021/12/12 00:39:50;;;;;;;37.28;22.17;;;;;;;6.63;100.00;101556.42;1723788;81;21013;-61
2021/12/12 00:42:20;;;;;;;40.55;21.70;;;;;;;5.11;100.00;101568.73;1719626;82;21050;-62
2021/12/12 00:44:51;;;;;;;;;;;;;;;5.72;100.00;101568.40;1725635;81;21003;-61
2021/12/12 00:47:19;;;;;;;36.45;19.45;;;;;;;5.82;100.00;101569.34;1726032;81;20180;-64
2021/12/12 00:49:46;;;;;;;33.60;18.52;;;;;;;5.91;100.00;101563.46;1725666;81;21159;-64
2021/12/12 00:52:16;;;;;;;35.03;21.42;;;;;;;6.06;100.00;101570.49;1725443;81;21058;-63
2021/12/12 00:54:43;;;;;;;35.25;20.43;;;;;;;6.20;100.00;101574.59;1728854;82;21481;-64
2021/12/12 00:57:14;;;;;;;35.85;20.68;;;;;;;6.19;100.00;101571.66;1726655;81;21007;-70
2021/12/12 00:59:41;;;;;;;32.38;18.55;;;;;;;6.23;100.00;101573.05;1728751;81;21073;-69
2021/12/12 01:02:14;;;;;;;35.70;19.95;;;;;;;6.54;100.00;101568.34;1725682;81;21127;-61
2021/12/12 01:04:44;;;;;;;37.93;19.73;;;;;;;6.51;100.00;101560.81;1727255;81;20920;-61
2021/12/12 01:07:16;;;;;;;33.20;17.98;;;;;;;6.51;100.00;101547.86;1728894;81;21003;-70
2021/12/12 01:09:49;;;;;;;34.05;18.42;;;;;;;6.61;100.00;101546.65;1728388;81;21173;-63
2021/12/12 01:12:19;;;;;;;31.40;18.27;;;;;;;6.69;100.00;101546.84;1754610;80;21059;-62
2021/12/12 01:14:52;;;;;;;37.58;19.52;;;;;;;6.54;100.00;101549.39;1751399;81;21137;-62
2021/12/12 01:17:31;;;;;;;33.55;18.77;;;;;;;6.26;100.00;101558.09;1749320;81;20939;-70
2021/12/12 01:20:02;;;;;;;30.95;18.32;;;;;;;6.46;100.00;101556.97;1747599;81;21058;-61
2021/12/12 01:22:34;;;;;;;34.00;19.52;;;;;;;6.60;100.00;101555.86;1751856;81;21051;-60
2021/12/12 01:25:18;;;;;;;36.60;20.80;;;;;;;6.58;100.00;101558.07;1751366;81;27124;-70
2021/12/12 01:27:45;;;;;;;40.95;22.37;;;;;;;6.74;100.00;101569.77;1751483;81;21152;-61
2021/12/12 01:30:12;;;;;;;32.65;18.98;;;;;;;6.88;100.00;101560.40;1751289;81;21069;-61
2021/12/12 01:32:40;;;;;;;39.88;22.17;;;;;;;7.18;100.00;101563.98;1743552;81;21002;-68
2021/12/12 01:35:14;;;;;;;35.90;21.68;;;;;;;7.16;100.00;101552.91;1742237;81;21080;-65
2021/12/12 01:37:39;;;;;;;33.42;19.50;;;;;;;7.16;100.00;101560.23;1719335;81;21073;-63
2021/12/12 01:40:23;;;;;;;33.83;20.52;;;;;;;7.25;100.00;101576.30;1751772;81;21160;-62
2021/12/12 01:42:58;;;;;;;31.73;19.48;;;;;;;7.24;100.00;101559.59;1750229;81;21035;-63
2021/12/12 01:45:30;;;;;;;29.98;18.37;;;;;;;7.33;100.00;101550.20;1750884;81;21010;-62
2021/12/12 01:48:02;;;;;;;28.17;17.45;;;;;;;7.38;100.00;101552.73;1750298;81;21567;-61
2021/12/12 01:50:37;;;;;;;29.98;17.42;;;;;;;7.07;100.00;101553.21;1750632;81;21085;-61
2021/12/12 01:53:06;;;;;;;31.10;17.90;;;;;;;7.35;100.00;101553.02;1748186;81;22378;-61
2021/12/12 01:55:41;;;;;;;34.35;18.10;;;;;;;7.45;100.00;101560.83;1751809;81;20919;-61
2021/12/12 01:58:12;;;;;;;32.95;17.90;;;;;;;7.19;100.00;101554.77;1749437;81;21544;-66
2021/12/12 02:00:44;;;;;;;28.90;16.17;;;;;;;6.95;100.00;101556.35;1751303;81;20971;-66
2021/12/12 02:03:14;;;;;;;29.52;17.48;;;;;;;6.85;100.00;101558.05;1747077;81;21090;-63
2021/12/12 02:05:41;;;;;;;28.98;15.72;;;;;;;7.14;100.00;101547.05;1721865;81;21869;-69
2021/12/12 02:08:12;;;;;;;26.65;15.90;;;;;;;7.23;100.00;101549.67;1714887;82;21394;-62
2021/12/12 02:10:50;;;;;;;25.17;15.18;;;;;;;7.09;100.00;101538.36;1717497;82;20953;-62
2021/12/12 02:13:19;;;;;;;25.90;14.80;;;;;;;7.00;100.00;101546.89;1715437;82;21096;-62
2021/12/12 02:15:48;;;;;;;26.15;13.43;;;;;;;7.16;100.00;101549.86;1702972;82;20956;-61
2021/12/12 02:18:18;;;;;;;24.82;14.13;;;;;;;6.85;100.00;101571.02;1703684;82;21984;-68
2021/12/12 02:21:10;;;;;;;25.08;13.18;;;;;;;6.79;100.00;101567.17;1703738;82;20952;-63
2021/12/12 02:37:10;;;;;;;24.70;13.72;;;;;;;4.61;100.00;101591.38;1703842;82;21000;-67
2021/12/12 02:39:39;;;;;;;25.17;14.65;;;;;;;4.72;100.00;101582.86;1704833;82;21099;-61
2021/12/12 02:42:10;;;;;;;23.47;14.63;;;;;;;4.83;100.00;101588.06;1700674;82;20960;-61
2021/12/12 02:44:40;;;;;;;23.12;12.85;;;;;;;4.88;100.00;101595.81;1705671;82;21166;-61
2021/12/12 02:47:13;;;;;;;27.50;15.25;;;;;;;5.03;100.00;101599.03;1701137;83;20957;-69
2021/12/12 02:52:22;;;;;;;27.27;16.35;;;;;;;5.24;100.00;101590.16;1698648;82;21890;-66
2021/12/12 02:54:49;;;;;;;;;;;;;;;5.28;100.00;101595.91;1702076;82;21540;-64
2021/12/12 02:57:16;;;;;;;27.73;15.45;;;;;;;5.20;100.00;101599.55;1702725;82;22026;-62
2021/12/12 02:59:48;;;;;;;25.80;14.83;;;;;;;5.26;100.00;101593.90;1701308;82;21146;-65
2021/12/12 03:02:18;;;;;;;22.67;14.18;;;;;;;5.20;100.00;101595.20;1702941;82;21629;-62
2021/12/12 03:04:45;;;;;;;29.12;15.03;;;;;;;5.22;100.00;101594.59;1713437;82;21059;-62
2021/12/12 03:07:12;;;;;;;24.43;15.03;;;;;;;5.28;100.00;101582.99;1729512;81;20979;-64
2021/12/12 03:09:44;;;;;;;25.12;14.58;;;;;;;5.14;100.00;101589.19;1728261;81;22078;-65
2021/12/12 03:12:21;;;;;;;23.57;15.18;;;;;;;5.08;100.00;101587.08;1729179;81;21011;-64
2021/12/12 03:14:49;;;;;;;24.45;15.35;;;;;;;5.14;100.00;101591.77;1729831;81;21105;-62
2021/12/12 03:17:21;;;;;;;24.32;14.45;;;;;;;5.15;100.00;101592.12;1729882;81;21053;-63
2021/12/12 03:19:58;;;;;;;23.60;14.47;;;;;;;5.36;100.00;101598.74;1729130;81;21075;-63
2021/12/12 03:22:26;;;;;;;27.20;16.00;;;;;;;5.15;100.00;101590.00;1728324;81;21123;-65
2021/12/12 03:24:53;;;;;;;28.80;16.87;;;;;;;5.16;100.00;101591.67;1730062;81;22296;-61
2021/12/12 03:27:22;;;;;;;26.73;15.88;;;;;;;4.95;100.00;101590.20;1729332;81;21011;-62
2021/12/12 03:29:50;;;;;;;25.82;15.70;;;;;;;5.03;100.00;101597.73;1726015;81;21398;-63
2021/12/12 03:32:20;;;;;;;30.43;16.42;;;;;;;4.94;100.00;101593.27;1729156;81;20995;-64
2021/12/12 03:34:52;;;;;;;29.92;15.75;;;;;;;4.95;100.00;101596.19;1729766;81;21182;-64
2021/12/12 03:37:21;;;;;;;26.82;16.27;;;;;;;5.07;100.00;101591.39;1728407;81;21579;-61
2021/12/12 03:39:52;;;;;;;25.35;15.00;;;;;;;4.96;100.00;101593.95;1729442;81;21516;-62
2021/12/12 03:42:22;;;;;;;29.30;15.65;;;;;;;4.94;100.00;101602.30;1729121;82;22211;-66
2021/12/12 03:44:50;;;;;;;24.80;16.27;;;;;;;5.19;100.00;101590.13;1730806;81;21433;-64
2021/12/12 03:47:28;;;;;;;24.85;14.98;;;;;;;5.19;100.00;101590.13;1714238;82;21110;-63
2021/12/12 03:49:56;;;;;;;32.33;16.87;;;;;;;5.21;100.00;101585.68;1730627;81;21455;-66
2021/12/12 03:52:24;;;;;;;32.28;16.80;;;;;;;5.27;100.00;101582.64;1730687;81;20951;-62
2021/12/12 03:54:52;;;;;;;29.25;16.23;;;;;;;5.44;100.00;101582.17;1726236;81;21157;-69
2021/12/12 03:57:20;;;;;;;33.35;16.23;;;;;;;5.67;100.00;101584.28;1728445;81;21153;-62
2021/12/12 03:59:47;;;;;;;23.87;14.73;;;;;;;5.44;100.00;101571.83;1728938;81;21168;-63
2021/12/12 04:02:14;;;;;;;27.80;16.12;;;;;;;5.44;100.00;101574.41;1756699;77;20971;-63
2021/12/12 04:04:44;;;;;;;27.50;17.73;;;;;;;5.52;100.00;101564.77;1758419;80;20987;-68
2021/12/12 04:07:16;;;;;;;26.93;15.53;;;;;;;5.59;100.00;101563.36;1757825;80;21047;-62
2021/12/12 04:09:44;;;;;;;30.20;17.70;;;;;;;5.42;100.00;101564.67;1762640;80;21599;-63
2021/12/12 04:12:15;;;;;;;28.12;17.57;;;;;;;5.61;100.00;101565.37;1759116;80;21004;-64
2021/12/12 04:14:42;;;;;;;28.55;16.32;;;;;;;5.59;100.00;101557.72;1761982;80;21046;-62
2021/12/12 04:17:13;;;;;;;24.52;14.23;;;;;;;5.54;100.00;101553.85;1761228;80;21803;-63
2021/12/12 04:19:43;;;;;;;24.47;14.63;;;;;;;5.48;100.00;101566.77;1761326;80;21074;-64
2021/12/12 04:22:10;;;;;;;24.30;15.08;;;;;;;5.57;100.00;101552.33;1761904;80;21000;-62
2021/12/12 04:24:40;;;;;;;28.90;14.70;;;;;;;5.49;100.00;101543.87;1760748;80;21117;-68
2021/12/12 04:27:08;;;;;;;27.20;14.35;;;;;;;5.38;100.00;101542.58;1737007;80;21041;-62
2021/12/12 04:29:42;;;;;;;24.35;14.58;;;;;;;5.36;100.00;101543.16;1759397;80;20996;-64
2021/12/12 04:32:13;;;;;;;31.97;15.10;;;;;;;5.35;100.00;101542.80;1762945;80;20987;-65
2021/12/12 04:34:46;;;;;;;24.57;14.13;;;;;;;5.50;100.00;101540.81;1760978;80;21095;-68
2021/12/12 04:37:13;;;;;;;26.02;15.85;;;;;;;5.47;100.00;101554.78;1753957;81;21136;-63
2021/12/12 04:39:43;;;;;;;23.62;14.43;;;;;;;5.42;100.00;101559.50;1754255;81;20993;-63
2021/12/12 04:42:14;;;;;;;28.45;15.58;;;;;;;5.36;100.00;101567.72;1753943;81;20953;-65
2021/12/12 04:44:42;;;;;;;24.90;15.25;;;;;;;5.44;100.00;101569.72;1753470;81;21431;-65
2021/12/12 04:50:34;;;;;;;26.87;14.85;;;;;;;5.43;100.00;101580.53;1752737;81;21187;-62
2021/12/12 04:53:24;;;;;;;29.25;16.60;;;;;;;5.60;100.00;101585.69;1754704;81;21120;-62
2021/12/12 04:56:05;;;;;;;31.45;16.70;;;;;;;5.48;100.00;101584.88;1735191;81;20920;-61
2021/12/12 04:58:43;;;;;;;32.35;17.73;;;;;;;5.64;100.00;101600.03;1737351;81;21029;-63
2021/12/12 05:01:40;;;;;;;31.97;16.62;;;;;;;5.74;100.00;101606.16;1755597;80;21013;-69
2021/12/12 05:04:22;;;;;;;28.80;17.17;;;;;;;5.28;100.00;101607.55;1762379;80;21154;-70
2021/12/12 05:07:00;;;;;;;32.17;18.25;;;;;;;5.11;100.00;101604.47;1763948;80;20999;-62
2021/12/12 05:09:49;;;;;;;28.07;15.72;;;;;;;5.22;100.00;101614.46;1762639;80;20893;-62
2021/12/12 05:12:36;;;;;;;28.38;15.55;;;;;;;5.44;100.00;101600.75;1761760;80;20986;-63
2021/12/12 05:15:11;;;;;;;28.15;16.02;;;;;;;5.70;100.00;101605.22;1762712;80;21013;-65
2021/12/12 05:18:01;;;;;;;31.42;15.53;;;;;;;5.72;100.00;101611.94;1762385;80;21131;-63
2021/12/12 05:20:32;;;;;;;;;;;;;;;5.73;100.00;101608.88;1765384;80;20962;-64
2021/12/12 05:23:04;;;;;;;30.97;16.37;;;;;;;5.55;100.00;101619.67;1762271;80;20126;-63
2021/12/12 05:25:54;;;;;;;27.37;15.08;;;;;;;5.67;100.00;101620.98;1762187;80;21066;-61
2021/12/12 05:28:27;;;;;;;29.15;16.35;;;;;;;5.50;100.00;101623.09;1759905;80;20958;-64
2021/12/12 05:30:55;;;;;;;32.40;16.82;;;;;;;5.53;100.00;101621.57;1762045;80;21958;-70
2021/12/12 05:33:22;;;;;;;32.67;17.62;;;;;;;5.59;100.00;101616.39;1762370;80;20935;-63
2021/12/12 05:35:50;;;;;;;31.60;15.83;;;;;;;5.53;100.00;101631.92;1762576;80;21054;-61
2021/12/12 05:38:18;;;;;;;27.32;14.87;;;;;;;5.47;100.00;101637.55;1762717;80;21461;-67
2021/12/12 05:40:45;;;;;;;30.25;15.83;;;;;;;5.50;100.00;101644.26;1762338;80;21082;-61
2021/12/12 05:43:13;;;;;;;26.12;12.63;;;;;;;5.56;100.00;101645.89;1730035;80;22361;-61
2021/12/12 05:45:40;;;;;;;23.42;13.25;;;;;;;5.60;100.00;101639.54;1762734;80;21581;-63
2021/12/12 05:48:08;;;;;;;21.15;13.40;;;;;;;5.60;100.00;101650.36;1760299;80;21459;-61
2021/12/12 05:50:35;;;;;;;24.25;12.98;;;;;;;5.55;100.00;101648.13;1762427;80;20967;-67
2021/12/12 05:53:02;;;;;;;24.15;14.23;;;;;;;5.55;100.00;101655.89;1762589;80;22473;-62
2021/12/12 05:55:33;;;;;;;23.55;12.90;;;;;;;5.26;100.00;101661.12;1762034;80;21569;-64
2021/12/12 05:58:01;;;;;;;25.45;14.23;;;;;;;5.00;100.00;101641.92;1762697;80;21009;-63
2021/12/12 06:00:57;;;;;;;22.22;14.60;;;;;;;5.05;100.00;101644.98;1762256;80;20999;-71
2021/12/12 06:03:28;;;;;;;25.15;13.85;;;;;;;5.03;100.00;101642.96;1753664;81;20943;-65
2021/12/12 06:05:56;;;;;;;26.65;13.38;;;;;;;5.18;100.00;101640.19;1755643;80;21003;-69
2021/12/12 06:08:25;;;;;;;23.35;14.40;;;;;;;5.32;100.00;101639.98;1734740;80;21160;-65
2021/12/12 06:10:53;;;;;;;18.50;11.57;;;;;;;5.41;100.00;101645.75;1755396;80;21528;-67
2021/12/12 06:13:20;;;;;;;23.70;13.35;;;;;;;5.38;100.00;101640.84;1754243;81;21472;-62
2021/12/12 06:15:53;;;;;;;20.62;12.35;;;;;;;5.53;100.00;101641.41;1754382;81;22094;-68
2021/12/12 06:18:24;;;;;;;22.42;13.65;;;;;;;5.58;100.00;101650.48;1755301;80;21650;-61
2021/12/12 06:20:51;;;;;;;23.52;13.00;;;;;;;5.11;100.00;101654.03;1755269;80;24962;-62
2021/12/12 06:23:19;;;;;;;22.30;13.32;;;;;;;5.20;100.00;101659.00;1753844;80;20990;-65
2021/12/12 06:25:46;;;;;;;23.80;12.63;;;;;;;5.23;100.00;101654.91;1754236;81;21406;-68
2021/12/12 06:28:20;;;;;;;22.60;12.73;;;;;;;5.36;100.00;101651.75;1754839;80;21021;-65
2021/12/12 06:30:47;;;;;;;21.65;12.43;;;;;;;5.43;100.00;101671.05;1754662;80;20950;-62
2021/12/12 06:33:15;;;;;;;19.17;11.43;;;;;;;5.44;100.00;101651.17;1753978;81;21799;-66
2021/12/12 06:35:42;;;;;;;22.67;11.65;;;;;;;5.43;100.00;101638.72;1755425;80;21530;-68
2021/12/12 06:38:12;;;;;;;22.85;12.88;;;;;;;5.54;100.00;101672.35;1754011;80;21093;-64
2021/12/12 06:40:40;;;;;;;21.82;11.70;;;;;;;5.34;100.00;101637.66;1754454;79;21037;-64
2021/12/12 06:43:09;;;;;;;17.65;10.35;;;;;;;5.22;100.00;101642.42;1815895;77;20961;-69
2021/12/12 06:45:37;;;;;;;17.98;12.15;;;;;;;5.42;100.00;101635.78;1813861;78;21124;-68
2021/12/12 06:48:07;;;;;;;19.05;11.05;;;;;;;5.66;100.00;101636.16;1814609;78;20981;-65
2021/12/12 06:50:35;;;;;;;20.12;12.03;;;;;;;5.75;100.00;101631.55;1815311;78;21558;-66
2021/12/12 06:53:03;;;;;;;22.85;12.55;;;;;;;5.82;100.00;101640.50;1815945;77;21389;-66
2021/12/12 06:55:31;;;;;;;19.65;11.25;;;;;;;5.89;100.00;101632.61;1814304;77;20926;-65
2021/12/12 06:57:58;;;;;;;19.25;12.98;;;;;;;6.01;100.00;101625.69;1815380;77;21125;-65
2021/12/12 07:00:26;;;;;;;21.73;12.00;;;;;;;5.92;100.00;101637.59;1816379;77;20855;-68
2021/12/12 07:02:53;;;;;;;23.52;13.78;;;;;;;6.07;100.00;101638.98;1815787;77;21585;-65
2021/12/12 07:05:26;;;;;;;21.73;12.95;;;;;;;6.26;100.00;101644.02;1813434;78;21012;-68
2021/12/12 07:07:53;;;;;;;20.60;13.75;;;;;;;6.35;100.00;101635.52;1815887;77;21128;-64
2021/12/12 07:10:23;;;;;;;19.50;11.70;;;;;;;6.27;100.00;101634.01;1814737;78;22028;-65
2021/12/12 07:12:55;;;;;;;22.90;13.40;;;;;;;6.32;100.00;101617.63;1814850;78;20955;-65
2021/12/12 07:15:20;;;;;;;25.92;13.55;;;;;;;6.46;100.00;101617.36;1813324;78;20961;-67
2021/12/12 07:17:48;;;;;;;27.30;15.75;;;;;;;6.25;100.00;101622.94;1814698;78;21148;-65
2021/12/12 07:20:15;;;;;;;27.62;16.30;;;;;;;5.38;100.00;101620.15;1815363;78;21130;-66
2021/12/12 07:22:43;;;;;;;27.25;15.18;;;;;;;5.26;100.00;101621.05;1815378;77;21255;-66
2021/12/12 07:25:10;;;;;;;25.77;15.32;;;;;;;5.16;100.00;101628.68;1814711;78;21307;-68
2021/12/12 07:27:39;;;;;;;25.72;14.03;;;;;;;5.24;100.00;101621.65;1812333;77;21042;-66
2021/12/12 07:30:08;;;;;;;26.75;14.75;;;;;;;5.20;100.00;101625.41;1815787;77;21530;-68
2021/12/12 07:32:37;;;;;;;26.70;14.47;;;;;;;5.09;100.00;101630.89;1814780;78;20938;-66
2021/12/12 07:35:09;;;;;;;27.98;14.38;;;;;;;4.92;100.00;101639.05;1810003;77;21160;-66
2021/12/12 07:37:36;;;;;;;19.87;13.10;;;;;;;4.58;100.00;101644.54;1813971;78;21518;-66
2021/12/12 07:40:07;;;;;;;21.77;12.85;;;;;;;4.77;100.00;101635.84;1815235;77;20991;-67
2021/12/12 07:42:34;;;;;;;24.40;13.28;;;;;;;4.81;100.00;101635.12;1814753;78;20926;-68
2021/12/12 07:45:02;;;;;;;23.67;13.43;;;;;;;4.84;100.00;101633.62;1814568;78;20977;-68
2021/12/12 07:47:31;;;;;;;23.57;12.63;;;;;;;4.95;100.00;101634.13;1814762;77;22153;-66
2021/12/12 07:49:58;;;;;;;23.38;12.70;;;;;;;4.45;100.00;101627.81;1815378;78;21054;-65
2021/12/12 07:52:28;;;;;;;23.22;14.10;;;;;;;4.29;100.00;101614.36;1815099;78;20930;-66
2021/12/12 07:54:56;;;;;;;23.47;13.62;;;;;;;4.03;100.00;101631.20;1815903;77;21538;-68
2021/12/12 07:57:24;;;;;;;20.75;11.15;;;;;;;4.42;100.00;101628.03;1814293;78;21041;-67
2021/12/12 07:59:53;;;;;;;22.95;12.65;;;;;;;4.36;100.00;101629.78;1815049;78;21137;-65
2021/12/12 08:02:20;;;;;;;21.07;12.37;;;;;;;4.42;100.00;101639.65;1815142;77;20827;-66
2021/12/12 08:04:48;;;;;;;23.10;12.35;;;;;;;4.41;100.00;101638.01;1815063;77;20878;-70
2021/12/12 08:07:18;;;;;;;22.50;13.13;;;;;;;4.45;100.00;101642.48;1815314;77;21135;-70
2021/12/12 08:09:45;;;;;;;20.65;12.47;;;;;;;4.54;100.00;101647.80;1815964;77;22103;-68
2021/12/12 08:12:17;;;;;;;17.82;11.97;;;;;;;4.68;100.00;101641.66;1812899;77;20950;-65
2021/12/12 08:14:44;;;;;;;18.15;12.03;;;;;;;4.62;100.00;101633.91;1814651;77;20921;-63
2021/12/12 08:17:13;;;;;;;20.35;12.37;;;;;;;4.64;100.00;101624.27;1811381;77;21437;-71
2021/12/12 08:19:43;;;;;;;20.25;12.85;;;;;;;4.72;100.00;101619.84;1816962;77;21127;-65
2021/12/12 08:22:11;;;;;;;18.67;11.68;;;;;;;4.87;100.00;101612.73;1815588;78;20946;-64
2021/12/12 08:24:38;;;;;;;20.97;11.60;;;;;;;4.84;100.00;101611.66;1813913;78;21102;-67
2021/12/12 08:27:06;;;;;;;22.20;12.68;;;;;;;4.89;100.00;101609.58;1815132;77;21025;-67
2021/12/12 08:29:34;;;;;;;18.95;11.28;;;;;;;4.90;100.00;101602.17;1816917;77;20887;-68
2021/12/12 08:32:05;;;;;;;30.37;16.87;;;;;;;4.73;100.00;101607.74;1816632;77;20977;-68
2021/12/12 08:34:33;;;;;;;;;;;;;;;4.52;100.00;101607.08;1817978;78;21080;-69
2021/12/12 08:37:00;;;;;;;26.50;14.28;;;;;;;4.46;100.00;101611.86;1816191;78;21233;-66
2021/12/12 08:39:28;;;;;;;22.05;12.30;;;;;;;4.46;100.00;101601.53;1816544;77;21020;-69
2021/12/12 08:41:56;;;;;;;20.88;13.62;;;;;;;4.52;100.00;101605.80;1816554;77;21132;-63
2021/12/12 08:44:24;;;;;;;22.27;13.58;;;;;;;4.69;100.00;101598.58;1813934;78;21040;-65
2021/12/12 08:46:54;;;;;;;20.40;12.90;;;;;;;4.73;100.00;101581.91;1815124;78;21063;-67
2021/12/12 08:49:24;;;;;;;24.63;13.18;;;;;;;4.70;100.00;101588.59;1814689;77;21195;-71
2021/12/12 08:51:58;;;;;;;22.60;13.50;;;;;;;4.81;100.00;101592.50;1814644;78;20824;-63
2021/12/12 08:54:30;;;;;;;22.93;12.70;;;;;;;4.69;100.00;101588.23;1814474;78;20926;-63
2021/12/12 08:57:05;;;;;;;17.87;11.57;;;;;;;4.84;100.00;101585.83;1818284;77;20912;-64
2021/12/12 08:59:34;;;;;;;19.62;11.57;;;;;;;4.97;100.00;101594.33;1816208;77;20883;-67
2021/12/12 09:02:07;;;;;;;20.05;11.93;;;;;;;4.98;100.00;101571.42;1815624;78;22417;-65
2021/12/12 09:04:39;;;;;;;19.73;11.80;;;;;;;5.02;100.00;101567.67;1817485;77;20965;-66
2021/12/12 09:07:22;;;;;;;22.30;14.05;;;;;;;5.06;100.00;101570.38;1817627;77;20993;-66
2021/12/12 09:10:03;;;;;;;21.57;11.88;;;;;;;5.38;100.00;101567.14;1814642;77;21008;-67
2021/12/12 09:12:38;;;;;;;21.17;12.55;;;;;;;5.27;100.00;101572.30;1816527;77;20982;-69
2021/12/12 09:15:13;;;;;;;24.10;11.90;;;;;;;5.27;100.00;101572.30;1816483;77;21569;-68
2021/12/12 09:17:52;;;;;;;21.17;11.97;;;;;;;5.32;100.00;101568.89;1820520;76;21424;-67
2021/12/12 09:20:35;;;;;;;19.80;12.30;;;;;;;5.40;100.00;101546.33;1818346;77;20984;-68
2021/12/12 09:23:29;;;;;;;23.05;12.63;;;;;;;5.48;100.00;101543.49;1814986;77;21056;-63
2021/12/12 09:26:04;;;;;;;20.88;12.10;;;;;;;5.37;100.00;101536.55;1815110;78;21158;-62
2021/12/12 09:28:55;;;;;;;18.45;11.15;;;;;;;5.66;100.00;101536.08;1813128;77;21401;-61
2021/12/12 09:31:31;;;;;;;22.37;12.78;;;;;;;5.79;100.00;101532.05;1816038;77;20985;-62
2021/12/12 09:34:29;;;;;;;25.52;11.88;;;;;;;5.56;100.00;101547.59;1815059;77;21111;-61
2021/12/12 09:37:04;;;;;;;21.10;12.88;;;;;;;5.68;100.00;101533.36;1805910;77;21105;-66
2021/12/12 09:39:39;;;;;;;24.18;12.65;;;;;;;5.84;100.00;101540.30;1823801;77;21569;-62
2021/12/12 09:42:29;;;;;;;21.82;11.83;;;;;;;6.01;100.00;101543.69;1822390;77;21787;-63
2021/12/12 09:45:27;;;;;;;26.65;12.75;;;;;;;6.04;100.00;101538.27;1824040;77;20988;-68
2021/12/12 09:51:21;;;;;;;19.48;12.35;;;;;;;5.85;100.00;101543.23;1823610;77;20953;-63
2021/12/12 09:54:29;;;;;;;22.20;11.35;;;;;;;6.09;100.00;101545.66;1825549;77;21108;-73
2021/12/12 09:57:11;;;;;;;19.62;12.07;;;;;;;6.26;100.00;101539.16;1820577;77;23222;-63
2021/12/12 10:00:17;;;;;;;20.12;11.60;;;;;;;6.19;100.00;101540.59;1817703;77;21392;-64
2021/12/12 10:03:10;;;;;;;20.32;12.05;;;;;;;5.64;100.00;101528.89;1813727;77;21126;-65
2021/12/12 10:06:10;;;;;;;22.80;12.35;;;;;;;5.44;100.00;101545.97;1817420;77;20981;-64
2021/12/12 10:09:07;;;;;;;21.17;13.10;;;;;;;5.32;100.00;101537.86;1778669;78;21022;-68
2021/12/12 10:11:42;;;;;;;20.48;12.13;;;;;;;5.32;100.00;101543.03;1815798;77;21104;-75
2021/12/12 10:14:34;;;;;;;17.17;11.90;;;;;;;5.44;100.00;101537.39;1821773;76;20992;-64
2021/12/12 10:17:14;;;;;;;24.15;11.95;;;;;;;5.55;100.00;101529.15;1792964;78;21052;-73
2021/12/12 10:19:49;;;;;;;24.40;12.73;;;;;;;5.57;100.00;101532.45;1820191;77;21075;-71
2021/12/12 10:22:51;;;;;;;21.93;12.35;;;;;;;5.81;100.00;101519.83;1820549;77;21519;-66
2021/12/12 10:25:22;;;;;;;19.27;11.83;;;;;;;5.71;100.00;101530.06;1822657;77;21049;-63
2021/12/12 10:28:19;;;;;;;22.02;11.97;;;;;;;5.69;100.00;101520.33;1819865;77;21031;-63
2021/12/12 10:30:57;;;;;;;25.82;12.20;;;;;;;5.69;100.00;101528.09;1818867;77;22182;-67
2021/12/12 10:33:40;;;;;;;25.00;13.50;;;;;;;6.15;100.00;101519.77;1818122;77;20929;-65
2021/12/12 10:36:13;;;;;;;23.87;12.33;;;;;;;6.61;100.00;101514.74;1808650;77;21085;-63
2021/12/12 10:38:52;;;;;;;18.65;11.93;;;;;;;6.25;100.00;101531.02;1822158;77;21109;-66
2021/12/12 10:41:30;;;;;;;18.60;11.33;;;;;;;6.01;100.00;101534.63;1814192;77;20933;-71
2021/12/12 10:44:14;;;;;;;23.42;14.18;;;;;;;5.80;100.00;101523.38;1824114;77;21537;-65
2021/12/12 10:47:22;;;;;;;21.90;12.00;;;;;;;5.84;100.00;101531.24;1818599;77;21024;-73
2021/12/12 10:50:12;;;;;;;20.92;12.18;;;;;;;5.91;100.00;101528.52;1819740;77;21483;-64
2021/12/12 10:53:08;;;;;;;22.50;11.75;;;;;;;5.96;100.00;101523.83;1792905;77;21135;-67
2021/12/12 10:55:54;;;;;;;21.17;12.47;;;;;;;5.63;100.00;101539.38;1816899;77;20936;-64
2021/12/12 10:58:46;;;;;;;26.25;14.23;;;;;;;5.79;100.00;101515.23;1816511;77;21353;-63
2021/12/12 11:01:23;;;;;;;21.30;13.08;;;;;;;5.66;100.00;101519.74;1832015;77;21616;-64
2021/12/12 11:04:12;;;;;;;20.35;12.15;;;;;;;5.63;100.00;101506.56;1816906;77;21134;-63
2021/12/12 11:06:44;;;;;;;25.57;12.50;;;;;;;6.31;100.00;101511.11;1811620;77;21061;-65
2021/12/12 11:09:30;;;;;;;;;;;;;;;6.37;100.00;101527.45;1816621;77;21066;-67
2021/12/12 11:12:27;;;;;;;24.15;11.85;;;;;;;6.48;100.00;101517.05;1812884;77;20509;-65
2021/12/12 11:15:21;;;;;;;22.70;13.10;;;;;;;6.53;100.00;101509.71;1811928;77;20950;-65
2021/12/12 11:18:08;;;;;;;25.82;13.65;;;;;;;6.45;100.00;101516.48;1809188;77;21661;-66
2021/12/12 11:20:45;;;;;;;22.67;12.65;;;;;;;6.22;100.00;101513.16;1812127;77;21174;-64
2021/12/12 11:23:32;;;;;;;23.02;12.53;;;;;;;6.57;100.00;101507.22;1741254;80;21034;-69
2021/12/12 11:26:06;;;;;;;20.77;12.35;;;;;;;6.47;100.00;101514.56;1763297;80;20978;-70
2021/12/12 11:28:43;;;;;;;21.73;13.20;;;;;;;6.47;100.00;101510.67;1762726;79;21942;-66
2021/12/12 11:31:15;;;;;;;23.87;13.80;;;;;;;6.44;100.00;101527.76;1742109;81;20879;-64
2021/12/12 11:33:45;;;;;;;;;;;;;;;6.53;100.00;101520.55;1774571;79;21083;-72
2021/12/12 11:36:15;;;;;;;25.95;13.80;;;;;;;6.49;100.00;101501.03;1767520;80;20164;-63
2021/12/12 11:38:59;;;;;;;22.67;13.60;;;;;;;6.53;100.00;101516.66;1737733;81;21034;-66
2021/12/12 11:41:41;;;;;;;22.45;12.58;;;;;;;6.52;100.00;101501.59;1766539;80;20934;-71
2021/12/12 11:44:26;;;;;;;;;;;;;;;6.48;100.00;101504.09;1813981;78;20962;-74
2021/12/12 11:47:02;;;;;;;24.40;13.85;;;;;;;6.42;100.00;101500.70;1810738;77;21468;-70
2021/12/12 11:49:43;;;;;;;23.15;13.62;;;;;;;6.48;100.00;101517.53;1815808;78;22317;-65
2021/12/12 11:52:14;;;;;;;22.07;12.63;;;;;;;6.53;100.00;101499.34;1810725;78;21705;-67
2021/12/12 11:55:05;;;;;;;22.13;13.55;;;;;;;6.34;100.00;101522.52;1811848;78;21500;-66
2021/12/12 11:57:47;;;;;;;31.55;15.18;;;;;;;6.33;100.00;101496.28;1814541;77;20918;-68
2021/12/12 12:00:22;;;;;;;27.65;14.28;;;;;;;6.56;100.00;101503.47;1813223;77;21513;-67
2021/12/12 12:03:21;;;;;;;24.23;13.40;;;;;;;6.51;100.00;101503.82;1809396;77;21170;-70
2021/12/12 12:06:25;;;;;;;26.87;16.20;;;;;;;6.66;100.00;101502.22;1813224;77;20878;-68